Orderville, Utah
Current Conditions -  °F | °C
As of 9:35 AM on Thursday 30 Oct 2014 (Local Time) from KAZC Reporting Station
Clear Clear  
Wind Chill: 52°   Ceiling: Unl
Heat Index: 52°   Visibility: 10mi
Dew Point: 23°   Wind: 6mph
Humidity: 33%   Direction: 130°SE
Pressure: 30.3"   Gusts: NA
Location:  37.28°N, 112.64°W
Report Text: KAZC 301535Z AUTO 13005KT 10SM CLR 11/M05 A3030 RMK AO2 T01101048
Loading
Personal Weather Stations






























Interactive Weather Map
Tropical Storm Tracking
New forecast layout! Learn more

10-Day Weather Forecast

Advertisements
Track Severe Weather on mobile